Terminal Aerodrome Forecast
Issued by NWS

Current Version | Previous Version | Text Only | Print | Product List | Glossary Off
Versions: 1 2 3 4 5 6 7 8 9 10 11 12 13 14 15 16 17 18 19 20 21

000
FTUS41 KILN 252332
TAFLUK
TAF
KLUK 252332Z 2600/2624 30004KT P6SM BKN050
     FM260400 00000KT P6SM SCT050
     FM260800 00000KT 4SM BR SCT040
      TEMPO 2609/2611 2SM BR SCT050
     FM261100 VRB03KT P6SM SCT050
     FM261800 32007KT P6SM BKN050=

USA.gov is the U.S. government's official web portal to all federal, state and local government web resources and services.